sensor_id;sensor_type;location;lat;lon;timestamp;P1;durP1;ratioP1;P2;durP2;ratioP2
7205;SDS011;3644;53.480;10.004;2022-09-01T00:00:22;1.83;;;1.30;;
7205;SDS011;3644;53.480;10.004;2022-09-01T00:02:53;2.27;;;1.13;;
7205;SDS011;3644;53.480;10.004;2022-09-01T00:05:19;1.57;;;1.10;;
7205;SDS011;3644;53.480;10.004;2022-09-01T00:07:45;6.60;;;1.23;;
7205;SDS011;3644;53.480;10.004;2022-09-01T00:10:10;1.00;;;1.00;;
7205;SDS011;3644;53.480;10.004;2022-09-01T00:12:36;1.00;;;1.00;;
7205;SDS011;3644;53.480;10.004;2022-09-01T00:15:03;3.33;;;1.47;;
7205;SDS011;3644;53.480;10.004;2022-09-01T00:17:30;2.97;;;1.10;;
7205;SDS011;3644;53.480;10.004;2022-09-01T00:19:56;1.00;;;1.00;;
7205;SDS011;3644;53.480;10.004;2022-09-01T00:22:22;1.20;;;1.10;;
7205;SDS011;3644;53.480;10.004;2022-09-01T00:24:47;0.97;;;0.97;;
7205;SDS011;3644;53.480;10.004;2022-09-01T00:27:13;1.20;;;1.00;;
7205;SDS011;3644;53.480;10.004;2022-09-01T00:29:38;6.00;;;1.67;;
7205;SDS011;3644;53.480;10.004;2022-09-01T00:32:04;1.60;;;1.07;;
7205;SDS011;3644;53.480;10.004;2022-09-01T00:34:30;1.07;;;1.00;;
7205;SDS011;3644;53.480;10.004;2022-09-01T00:36:55;1.45;;;1.35;;
7205;SDS011;3644;53.480;10.004;2022-09-01T00:39:21;1.47;;;1.37;;
7205;SDS011;3644;53.480;10.004;2022-09-01T00:41:46;1.30;;;1.20;;
7205;SDS011;3644;53.480;10.004;2022-09-01T00:44:15;1.50;;;1.40;;
7205;SDS011;3644;53.480;10.004;2022-09-01T00:46:47;2.20;;;1.40;;
7205;SDS011;3644;53.480;10.004;2022-09-01T00:49:18;1.30;;;1.20;;
7205;SDS011;3644;53.480;10.004;2022-09-01T00:51:48;5.80;;;1.30;;
7205;SDS011;3644;53.480;10.004;2022-09-01T00:54:24;1.63;;;1.20;;
7205;SDS011;3644;53.480;10.004;2022-09-01T00:56:53;1.10;;;1.00;;
7205;SDS011;3644;53.480;10.004;2022-09-01T00:59:20;1.23;;;1.13;;
7205;SDS011;3644;53.480;10.004;2022-09-01T01:01:47;1.23;;;1.20;;
7205;SDS011;3644;53.480;10.004;2022-09-01T01:04:13;1.23;;;1.00;;
7205;SDS011;3644;53.480;10.004;2022-09-01T01:06:46;1.77;;;1.20;;
7205;SDS011;3644;53.480;10.004;2022-09-01T01:09:22;1.40;;;1.30;;
7205;SDS011;3644;53.480;10.004;2022-09-01T01:11:49;1.30;;;1.20;;
7205;SDS011;3644;53.480;10.004;2022-09-01T01:14:16;1.00;;;1.00;;
7205;SDS011;3644;53.480;10.004;2022-09-01T01:16:44;3.33;;;1.40;;
7205;SDS011;3644;53.480;10.004;2022-09-01T01:19:24;1.37;;;1.30;;
7205;SDS011;3644;53.480;10.004;2022-09-01T01:22:16;1.43;;;1.10;;
7205;SDS011;3644;53.480;10.004;2022-09-01T01:25:08;1.50;;;1.10;;
7205;SDS011;3644;53.480;10.004;2022-09-01T01:27:36;4.47;;;1.50;;
7205;SDS011;3644;53.480;10.004;2022-09-01T01:30:03;9.50;;;1.37;;
7205;SDS011;3644;53.480;10.004;2022-09-01T01:32:33;3.03;;;1.50;;
7205;SDS011;3644;53.480;10.004;2022-09-01T01:35:00;6.50;;;1.63;;
7205;SDS011;3644;53.480;10.004;2022-09-01T01:37:27;1.73;;;1.60;;
7205;SDS011;3644;53.480;10.004;2022-09-01T01:39:53;1.40;;;1.30;;
7205;SDS011;3644;53.480;10.004;2022-09-01T01:42:18;2.83;;;1.20;;
7205;SDS011;3644;53.480;10.004;2022-09-01T01:44:44;1.20;;;1.20;;
7205;SDS011;3644;53.480;10.004;2022-09-01T01:47:12;3.10;;;1.20;;
7205;SDS011;3644;53.480;10.004;2022-09-01T01:49:40;1.40;;;1.30;;
7205;SDS011;3644;53.480;10.004;2022-09-01T01:52:07;3.73;;;1.23;;
7205;SDS011;3644;53.480;10.004;2022-09-01T01:54:34;1.40;;;1.30;;
7205;SDS011;3644;53.480;10.004;2022-09-01T01:57:00;3.27;;;1.30;;
7205;SDS011;3644;53.480;10.004;2022-09-01T01:59:28;3.07;;;1.20;;
7205;SDS011;3644;53.480;10.004;2022-09-01T02:01:54;1.17;;;1.07;;
7205;SDS011;3644;53.480;10.004;2022-09-01T02:04:20;3.67;;;1.37;;
7205;SDS011;3644;53.480;10.004;2022-09-01T02:06:46;2.40;;;1.53;;
7205;SDS011;3644;53.480;10.004;2022-09-01T02:09:14;4.00;;;1.20;;
7205;SDS011;3644;53.480;10.004;2022-09-01T02:11:41;4.10;;;1.63;;
7205;SDS011;3644;53.480;10.004;2022-09-01T02:14:09;1.57;;;1.47;;
7205;SDS011;3644;53.480;10.004;2022-09-01T02:16:37;2.70;;;1.60;;
7205;SDS011;3644;53.480;10.004;2022-09-01T02:19:04;4.77;;;1.80;;
7205;SDS011;3644;53.480;10.004;2022-09-01T02:21:31;1.40;;;1.30;;
7205;SDS011;3644;53.480;10.004;2022-09-01T02:24:02;2.60;;;1.30;;
7205;SDS011;3644;53.480;10.004;2022-09-01T02:29:01;1.70;;;1.60;;
7205;SDS011;3644;53.480;10.004;2022-09-01T02:31:29;1.63;;;1.53;;
7205;SDS011;3644;53.480;10.004;2022-09-01T02:33:59;1.13;;;1.13;;
7205;SDS011;3644;53.480;10.004;2022-09-01T02:36:25;1.60;;;1.50;;
7205;SDS011;3644;53.480;10.004;2022-09-01T02:38:52;1.60;;;1.27;;
7205;SDS011;3644;53.480;10.004;2022-09-01T02:41:18;1.20;;;1.10;;
7205;SDS011;3644;53.480;10.004;2022-09-01T02:43:44;1.40;;;1.27;;
7205;SDS011;3644;53.480;10.004;2022-09-01T02:46:10;1.40;;;1.30;;
7205;SDS011;3644;53.480;10.004;2022-09-01T02:48:39;1.50;;;1.27;;
7205;SDS011;3644;53.480;10.004;2022-09-01T02:51:10;1.30;;;1.17;;
7205;SDS011;3644;53.480;10.004;2022-09-01T02:53:38;1.40;;;1.30;;
7205;SDS011;3644;53.480;10.004;2022-09-01T02:56:06;5.10;;;1.63;;
7205;SDS011;3644;53.480;10.004;2022-09-01T02:58:36;3.10;;;1.70;;
7205;SDS011;3644;53.480;10.004;2022-09-01T03:01:14;2.10;;;1.20;;
7205;SDS011;3644;53.480;10.004;2022-09-01T03:03:48;6.10;;;1.53;;
7205;SDS011;3644;53.480;10.004;2022-09-01T03:06:17;4.93;;;1.40;;
7205;SDS011;3644;53.480;10.004;2022-09-01T03:08:45;1.20;;;1.10;;
7205;SDS011;3644;53.480;10.004;2022-09-01T03:11:11;1.10;;;1.00;;
7205;SDS011;3644;53.480;10.004;2022-09-01T03:13:38;2.40;;;1.60;;
7205;SDS011;3644;53.480;10.004;2022-09-01T03:16:05;4.37;;;1.67;;
7205;SDS011;3644;53.480;10.004;2022-09-01T03:18:32;1.47;;;1.37;;
7205;SDS011;3644;53.480;10.004;2022-09-01T03:20:58;2.00;;;1.60;;
7205;SDS011;3644;53.480;10.004;2022-09-01T03:23:24;2.27;;;1.50;;
7205;SDS011;3644;53.480;10.004;2022-09-01T03:25:51;5.23;;;1.87;;
7205;SDS011;3644;53.480;10.004;2022-09-01T03:28:17;2.03;;;1.83;;
7205;SDS011;3644;53.480;10.004;2022-09-01T03:30:46;6.83;;;1.83;;
7205;SDS011;3644;53.480;10.004;2022-09-01T03:33:14;2.73;;;1.70;;
7205;SDS011;3644;53.480;10.004;2022-09-01T03:35:41;3.87;;;1.50;;
7205;SDS011;3644;53.480;10.004;2022-09-01T03:38:07;4.40;;;2.47;;
7205;SDS011;3644;53.480;10.004;2022-09-01T03:40:34;3.60;;;2.10;;
7205;SDS011;3644;53.480;10.004;2022-09-01T03:43:04;5.57;;;2.53;;
7205;SDS011;3644;53.480;10.004;2022-09-01T03:45:31;4.50;;;2.07;;
7205;SDS011;3644;53.480;10.004;2022-09-01T03:48:02;2.87;;;1.90;;
7205;SDS011;3644;53.480;10.004;2022-09-01T03:50:33;3.20;;;1.93;;
7205;SDS011;3644;53.480;10.004;2022-09-01T03:53:05;3.27;;;2.70;;
7205;SDS011;3644;53.480;10.004;2022-09-01T03:55:31;2.53;;;2.33;;
7205;SDS011;3644;53.480;10.004;2022-09-01T03:58:02;2.40;;;2.10;;
7205;SDS011;3644;53.480;10.004;2022-09-01T04:00:30;2.90;;;1.43;;
7205;SDS011;3644;53.480;10.004;2022-09-01T04:03:00;4.83;;;1.90;;
7205;SDS011;3644;53.480;10.004;2022-09-01T04:05:27;1.40;;;1.30;;
7205;SDS011;3644;53.480;10.004;2022-09-01T04:07:55;4.67;;;1.50;;
7205;SDS011;3644;53.480;10.004;2022-09-01T04:10:22;1.97;;;1.87;;
7205;SDS011;3644;53.480;10.004;2022-09-01T04:12:48;5.40;;;1.80;;
7205;SDS011;3644;53.480;10.004;2022-09-01T04:15:15;4.90;;;1.60;;
7205;SDS011;3644;53.480;10.004;2022-09-01T04:17:42;1.80;;;1.67;;
7205;SDS011;3644;53.480;10.004;2022-09-01T04:20:27;1.83;;;1.70;;
7205;SDS011;3644;53.480;10.004;2022-09-01T04:22:53;3.57;;;1.70;;
7205;SDS011;3644;53.480;10.004;2022-09-01T04:25:19;2.63;;;2.17;;
7205;SDS011;3644;53.480;10.004;2022-09-01T04:27:51;4.33;;;1.70;;
7205;SDS011;3644;53.480;10.004;2022-09-01T04:30:21;2.03;;;1.93;;
7205;SDS011;3644;53.480;10.004;2022-09-01T04:32:50;3.53;;;1.80;;
7205;SDS011;3644;53.480;10.004;2022-09-01T04:35:19;2.47;;;1.67;;
7205;SDS011;3644;53.480;10.004;2022-09-01T04:37:51;1.87;;;1.77;;
7205;SDS011;3644;53.480;10.004;2022-09-01T04:40:17;3.20;;;2.37;;
7205;SDS011;3644;53.480;10.004;2022-09-01T04:42:47;1.57;;;1.37;;
7205;SDS011;3644;53.480;10.004;2022-09-01T04:45:13;3.50;;;2.27;;
7205;SDS011;3644;53.480;10.004;2022-09-01T04:47:39;4.80;;;1.60;;
7205;SDS011;3644;53.480;10.004;2022-09-01T04:50:09;3.00;;;1.83;;
7205;SDS011;3644;53.480;10.004;2022-09-01T04:52:41;4.07;;;1.70;;
7205;SDS011;3644;53.480;10.004;2022-09-01T04:55:09;19.00;;;1.60;;
7205;SDS011;3644;53.480;10.004;2022-09-01T04:57:46;2.07;;;1.87;;
7205;SDS011;3644;53.480;10.004;2022-09-01T05:00:16;4.40;;;2.20;;
7205;SDS011;3644;53.480;10.004;2022-09-01T05:02:48;1.90;;;1.80;;
7205;SDS011;3644;53.480;10.004;2022-09-01T05:05:16;7.90;;;1.83;;
7205;SDS011;3644;53.480;10.004;2022-09-01T05:07:42;6.63;;;1.63;;
7205;SDS011;3644;53.480;10.004;2022-09-01T05:10:08;2.70;;;2.33;;
7205;SDS011;3644;53.480;10.004;2022-09-01T05:12:33;3.70;;;1.40;;
7205;SDS011;3644;53.480;10.004;2022-09-01T05:15:00;2.00;;;1.50;;
7205;SDS011;3644;53.480;10.004;2022-09-01T05:17:30;6.10;;;1.93;;
7205;SDS011;3644;53.480;10.004;2022-09-01T05:19:57;3.23;;;1.77;;
7205;SDS011;3644;53.480;10.004;2022-09-01T05:22:22;5.83;;;2.30;;
7205;SDS011;3644;53.480;10.004;2022-09-01T05:24:49;4.30;;;1.87;;
7205;SDS011;3644;53.480;10.004;2022-09-01T05:27:15;2.30;;;1.77;;
7205;SDS011;3644;53.480;10.004;2022-09-01T05:29:42;1.90;;;1.63;;
7205;SDS011;3644;53.480;10.004;2022-09-01T05:32:10;3.30;;;2.10;;
7205;SDS011;3644;53.480;10.004;2022-09-01T05:34:37;2.10;;;1.90;;
7205;SDS011;3644;53.480;10.004;2022-09-01T05:37:03;5.50;;;2.90;;
7205;SDS011;3644;53.480;10.004;2022-09-01T05:39:30;3.80;;;1.80;;
7205;SDS011;3644;53.480;10.004;2022-09-01T05:41:57;2.40;;;1.87;;
7205;SDS011;3644;53.480;10.004;2022-09-01T05:44:23;5.47;;;2.80;;
7205;SDS011;3644;53.480;10.004;2022-09-01T05:46:49;2.17;;;1.97;;
7205;SDS011;3644;53.480;10.004;2022-09-01T05:49:15;5.17;;;2.77;;
7205;SDS011;3644;53.480;10.004;2022-09-01T05:51:43;3.10;;;2.37;;
7205;SDS011;3644;53.480;10.004;2022-09-01T05:54:13;5.90;;;2.47;;
7205;SDS011;3644;53.480;10.004;2022-09-01T05:56:40;2.57;;;1.90;;
7205;SDS011;3644;53.480;10.004;2022-09-01T05:59:07;3.53;;;2.10;;
7205;SDS011;3644;53.480;10.004;2022-09-01T06:01:34;11.53;;;2.30;;
7205;SDS011;3644;53.480;10.004;2022-09-01T06:04:04;6.23;;;2.53;;
7205;SDS011;3644;53.480;10.004;2022-09-01T06:06:35;3.00;;;2.47;;
7205;SDS011;3644;53.480;10.004;2022-09-01T06:09:06;4.40;;;2.50;;
7205;SDS011;3644;53.480;10.004;2022-09-01T06:11:33;3.13;;;2.73;;
7205;SDS011;3644;53.480;10.004;2022-09-01T06:13:59;4.17;;;2.57;;
7205;SDS011;3644;53.480;10.004;2022-09-01T06:16:25;3.97;;;2.40;;
7205;SDS011;3644;53.480;10.004;2022-09-01T06:18:52;9.03;;;2.60;;
7205;SDS011;3644;53.480;10.004;2022-09-01T06:21:21;4.50;;;2.00;;
7205;SDS011;3644;53.480;10.004;2022-09-01T06:23:48;3.50;;;1.73;;
7205;SDS011;3644;53.480;10.004;2022-09-01T06:26:18;4.30;;;2.13;;
7205;SDS011;3644;53.480;10.004;2022-09-01T06:28:45;6.43;;;1.83;;
7205;SDS011;3644;53.480;10.004;2022-09-01T06:31:12;3.23;;;2.00;;
7205;SDS011;3644;53.480;10.004;2022-09-01T06:33:38;5.13;;;2.20;;
7205;SDS011;3644;53.480;10.004;2022-09-01T06:36:04;2.30;;;1.90;;
7205;SDS011;3644;53.480;10.004;2022-09-01T06:38:33;4.97;;;1.73;;
7205;SDS011;3644;53.480;10.004;2022-09-01T06:41:04;5.20;;;1.87;;
7205;SDS011;3644;53.480;10.004;2022-09-01T06:43:36;3.60;;;2.00;;
7205;SDS011;3644;53.480;10.004;2022-09-01T06:46:06;3.13;;;1.80;;
7205;SDS011;3644;53.480;10.004;2022-09-01T06:48:33;5.63;;;1.87;;
7205;SDS011;3644;53.480;10.004;2022-09-01T06:51:00;3.93;;;1.50;;
7205;SDS011;3644;53.480;10.004;2022-09-01T06:53:27;4.63;;;1.30;;
7205;SDS011;3644;53.480;10.004;2022-09-01T06:55:55;3.30;;;1.90;;
7205;SDS011;3644;53.480;10.004;2022-09-01T06:58:20;2.80;;;1.50;;
7205;SDS011;3644;53.480;10.004;2022-09-01T07:00:46;3.70;;;1.80;;
7205;SDS011;3644;53.480;10.004;2022-09-01T07:03:13;3.60;;;1.70;;
7205;SDS011;3644;53.480;10.004;2022-09-01T07:05:40;2.17;;;1.40;;
7205;SDS011;3644;53.480;10.004;2022-09-01T07:08:08;2.40;;;1.50;;
7205;SDS011;3644;53.480;10.004;2022-09-01T07:10:41;6.30;;;1.70;;
7205;SDS011;3644;53.480;10.004;2022-09-01T07:13:13;4.53;;;1.60;;
7205;SDS011;3644;53.480;10.004;2022-09-01T07:15:47;1.43;;;1.00;;
7205;SDS011;3644;53.480;10.004;2022-09-01T07:18:18;1.80;;;1.30;;
7205;SDS011;3644;53.480;10.004;2022-09-01T07:20:49;3.63;;;1.50;;
7205;SDS011;3644;53.480;10.004;2022-09-01T07:23:15;5.43;;;1.40;;
7205;SDS011;3644;53.480;10.004;2022-09-01T07:25:42;2.70;;;1.00;;
7205;SDS011;3644;53.480;10.004;2022-09-01T07:28:11;1.20;;;1.10;;
7205;SDS011;3644;53.480;10.004;2022-09-01T07:30:48;1.73;;;0.80;;
7205;SDS011;3644;53.480;10.004;2022-09-01T07:33:16;1.50;;;1.00;;
7205;SDS011;3644;53.480;10.004;2022-09-01T07:35:44;1.10;;;1.10;;
7205;SDS011;3644;53.480;10.004;2022-09-01T07:38:10;3.30;;;1.00;;
7205;SDS011;3644;53.480;10.004;2022-09-01T07:40:37;1.00;;;0.90;;
7205;SDS011;3644;53.480;10.004;2022-09-01T07:43:25;0.97;;;0.80;;
7205;SDS011;3644;53.480;10.004;2022-09-01T07:45:54;1.90;;;1.07;;
7205;SDS011;3644;53.480;10.004;2022-09-01T07:48:23;0.90;;;0.90;;
7205;SDS011;3644;53.480;10.004;2022-09-01T07:50:52;1.90;;;0.73;;
7205;SDS011;3644;53.480;10.004;2022-09-01T07:53:22;2.87;;;1.30;;
7205;SDS011;3644;53.480;10.004;2022-09-01T07:55:50;0.80;;;0.80;;
7205;SDS011;3644;53.480;10.004;2022-09-01T07:58:19;5.37;;;1.20;;
7205;SDS011;3644;53.480;10.004;2022-09-01T08:00:47;1.87;;;1.00;;
7205;SDS011;3644;53.480;10.004;2022-09-01T08:03:14;3.90;;;0.70;;
7205;SDS011;3644;53.480;10.004;2022-09-01T08:05:41;1.47;;;0.80;;
7205;SDS011;3644;53.480;10.004;2022-09-01T08:08:07;0.97;;;0.87;;
7205;SDS011;3644;53.480;10.004;2022-09-01T08:10:33;2.37;;;1.10;;
7205;SDS011;3644;53.480;10.004;2022-09-01T08:13:02;1.37;;;1.00;;
7205;SDS011;3644;53.480;10.004;2022-09-01T08:15:28;1.83;;;1.00;;
7205;SDS011;3644;53.480;10.004;2022-09-01T08:17:53;0.77;;;0.77;;
7205;SDS011;3644;53.480;10.004;2022-09-01T08:20:19;1.10;;;0.93;;
7205;SDS011;3644;53.480;10.004;2022-09-01T08:22:44;3.37;;;1.00;;
7205;SDS011;3644;53.480;10.004;2022-09-01T08:25:10;1.00;;;0.93;;
7205;SDS011;3644;53.480;10.004;2022-09-01T08:27:36;5.13;;;1.00;;
7205;SDS011;3644;53.480;10.004;2022-09-01T08:30:06;3.07;;;1.13;;
7205;SDS011;3644;53.480;10.004;2022-09-01T08:32:33;1.30;;;1.10;;
7205;SDS011;3644;53.480;10.004;2022-09-01T08:34:59;2.67;;;1.07;;
7205;SDS011;3644;53.480;10.004;2022-09-01T08:37:25;2.30;;;1.10;;
7205;SDS011;3644;53.480;10.004;2022-09-01T08:39:51;2.30;;;0.90;;
7205;SDS011;3644;53.480;10.004;2022-09-01T08:42:20;1.30;;;0.90;;
7205;SDS011;3644;53.480;10.004;2022-09-01T08:45:10;0.80;;;0.80;;
7205;SDS011;3644;53.480;10.004;2022-09-01T08:47:59;0.80;;;0.80;;
7205;SDS011;3644;53.480;10.004;2022-09-01T08:50:38;2.30;;;0.90;;
7205;SDS011;3644;53.480;10.004;2022-09-01T08:53:16;1.37;;;0.80;;
7205;SDS011;3644;53.480;10.004;2022-09-01T08:55:54;1.00;;;0.90;;
7205;SDS011;3644;53.480;10.004;2022-09-01T08:58:21;2.03;;;0.83;;
7205;SDS011;3644;53.480;10.004;2022-09-01T09:00:50;3.27;;;0.80;;
7205;SDS011;3644;53.480;10.004;2022-09-01T09:06:11;1.23;;;0.70;;
7205;SDS011;3644;53.480;10.004;2022-09-01T09:16:52;2.50;;;0.80;;
7205;SDS011;3644;53.480;10.004;2022-09-01T09:21:57;1.77;;;0.70;;
7205;SDS011;3644;53.480;10.004;2022-09-01T09:24:31;5.83;;;0.80;;
7205;SDS011;3644;53.480;10.004;2022-09-01T09:29:51;5.33;;;1.20;;
7205;SDS011;3644;53.480;10.004;2022-09-01T09:32:19;0.87;;;0.80;;
7205;SDS011;3644;53.480;10.004;2022-09-01T09:34:46;1.37;;;0.70;;
7205;SDS011;3644;53.480;10.004;2022-09-01T09:37:19;1.30;;;1.00;;
7205;SDS011;3644;53.480;10.004;2022-09-01T09:40:00;2.47;;;1.00;;
7205;SDS011;3644;53.480;10.004;2022-09-01T09:42:40;1.97;;;0.80;;
7205;SDS011;3644;53.480;10.004;2022-09-01T09:45:38;1.37;;;0.70;;
7205;SDS011;3644;53.480;10.004;2022-09-01T09:48:09;1.60;;;0.90;;
7205;SDS011;3644;53.480;10.004;2022-09-01T09:50:51;1.10;;;0.80;;
7205;SDS011;3644;53.480;10.004;2022-09-01T09:53:25;0.80;;;0.80;;
7205;SDS011;3644;53.480;10.004;2022-09-01T09:56:08;0.83;;;0.80;;
7205;SDS011;3644;53.480;10.004;2022-09-01T09:58:42;1.77;;;0.87;;
7205;SDS011;3644;53.480;10.004;2022-09-01T10:03:44;0.90;;;0.80;;
7205;SDS011;3644;53.480;10.004;2022-09-01T10:09:02;1.33;;;0.80;;
7205;SDS011;3644;53.480;10.004;2022-09-01T10:11:51;1.10;;;0.80;;
7205;SDS011;3644;53.480;10.004;2022-09-01T10:14:27;4.57;;;1.00;;
7205;SDS011;3644;53.480;10.004;2022-09-01T10:17:00;2.80;;;1.03;;
7205;SDS011;3644;53.480;10.004;2022-09-01T10:19:28;3.30;;;0.93;;
7205;SDS011;3644;53.480;10.004;2022-09-01T10:21:58;0.93;;;0.83;;
7205;SDS011;3644;53.480;10.004;2022-09-01T10:27:03;0.73;;;0.73;;
7205;SDS011;3644;53.480;10.004;2022-09-01T10:29:42;0.80;;;0.70;;
7205;SDS011;3644;53.480;10.004;2022-09-01T10:32:27;2.10;;;0.90;;
7205;SDS011;3644;53.480;10.004;2022-09-01T10:34:57;0.97;;;0.80;;
7205;SDS011;3644;53.480;10.004;2022-09-01T10:37:23;1.03;;;0.70;;
7205;SDS011;3644;53.480;10.004;2022-09-01T10:42:35;0.70;;;0.70;;
7205;SDS011;3644;53.480;10.004;2022-09-01T10:45:01;2.10;;;0.90;;
7205;SDS011;3644;53.480;10.004;2022-09-01T10:47:30;3.20;;;1.77;;
7205;SDS011;3644;53.480;10.004;2022-09-01T10:50:08;4.67;;;2.67;;
7205;SDS011;3644;53.480;10.004;2022-09-01T11:00:48;1.77;;;0.80;;
7205;SDS011;3644;53.480;10.004;2022-09-01T11:13:45;1.57;;;0.80;;
7205;SDS011;3644;53.480;10.004;2022-09-01T11:22:28;1.07;;;0.60;;
7205;SDS011;3644;53.480;10.004;2022-09-01T11:24:52;0.93;;;0.70;;
7205;SDS011;3644;53.480;10.004;2022-09-01T11:30:16;1.40;;;1.30;;
7205;SDS011;3644;53.480;10.004;2022-09-01T11:32:45;1.63;;;0.97;;
7205;SDS011;3644;53.480;10.004;2022-09-01T11:35:18;1.30;;;1.10;;
7205;SDS011;3644;53.480;10.004;2022-09-01T11:37:49;0.80;;;0.80;;
7205;SDS011;3644;53.480;10.004;2022-09-01T11:40:19;0.70;;;0.70;;
7205;SDS011;3644;53.480;10.004;2022-09-01T11:42:47;0.70;;;0.70;;
7205;SDS011;3644;53.480;10.004;2022-09-01T11:45:16;1.90;;;0.80;;
7205;SDS011;3644;53.480;10.004;2022-09-01T11:47:46;1.93;;;1.00;;
7205;SDS011;3644;53.480;10.004;2022-09-01T11:52:53;3.10;;;0.90;;
7205;SDS011;3644;53.480;10.004;2022-09-01T11:55:36;1.67;;;0.93;;
7205;SDS011;3644;53.480;10.004;2022-09-01T11:58:10;1.60;;;0.80;;
7205;SDS011;3644;53.480;10.004;2022-09-01T12:00:53;1.03;;;1.03;;
7205;SDS011;3644;53.480;10.004;2022-09-01T12:03:21;1.00;;;0.77;;
7205;SDS011;3644;53.480;10.004;2022-09-01T12:05:57;1.20;;;0.80;;
7205;SDS011;3644;53.480;10.004;2022-09-01T12:08:26;2.37;;;0.80;;
7205;SDS011;3644;53.480;10.004;2022-09-01T12:11:06;1.40;;;0.90;;
7205;SDS011;3644;53.480;10.004;2022-09-01T12:13:53;1.90;;;1.00;;
7205;SDS011;3644;53.480;10.004;2022-09-01T12:16:30;1.47;;;1.00;;
7205;SDS011;3644;53.480;10.004;2022-09-01T12:18:59;6.53;;;0.80;;
7205;SDS011;3644;53.480;10.004;2022-09-01T12:21:32;1.77;;;1.03;;
7205;SDS011;3644;53.480;10.004;2022-09-01T12:26:34;2.13;;;1.10;;
7205;SDS011;3644;53.480;10.004;2022-09-01T12:29:00;1.13;;;0.90;;
7205;SDS011;3644;53.480;10.004;2022-09-01T12:31:26;5.63;;;1.00;;
7205;SDS011;3644;53.480;10.004;2022-09-01T12:33:52;1.37;;;0.80;;
7205;SDS011;3644;53.480;10.004;2022-09-01T12:38:53;4.20;;;0.80;;
7205;SDS011;3644;53.480;10.004;2022-09-01T12:41:39;3.57;;;1.20;;
7205;SDS011;3644;53.480;10.004;2022-09-01T12:46:56;1.63;;;0.83;;
7205;SDS011;3644;53.480;10.004;2022-09-01T12:49:26;10.07;;;1.10;;
7205;SDS011;3644;53.480;10.004;2022-09-01T12:54:49;3.60;;;0.97;;
7205;SDS011;3644;53.480;10.004;2022-09-01T13:02:37;1.10;;;0.73;;
7205;SDS011;3644;53.480;10.004;2022-09-01T13:07:51;3.23;;;0.80;;
7205;SDS011;3644;53.480;10.004;2022-09-01T13:10:18;1.10;;;0.80;;
7205;SDS011;3644;53.480;10.004;2022-09-01T13:12:44;2.40;;;0.80;;
7205;SDS011;3644;53.480;10.004;2022-09-01T13:15:11;1.10;;;0.80;;
7205;SDS011;3644;53.480;10.004;2022-09-01T13:17:37;0.83;;;0.83;;
7205;SDS011;3644;53.480;10.004;2022-09-01T13:20:04;2.03;;;0.93;;
7205;SDS011;3644;53.480;10.004;2022-09-01T13:22:31;1.07;;;0.80;;
7205;SDS011;3644;53.480;10.004;2022-09-01T13:24:56;0.87;;;0.80;;
7205;SDS011;3644;53.480;10.004;2022-09-01T13:27:22;0.80;;;0.73;;
7205;SDS011;3644;53.480;10.004;2022-09-01T13:29:48;2.97;;;1.00;;
7205;SDS011;3644;53.480;10.004;2022-09-01T13:32:14;0.70;;;0.70;;
7205;SDS011;3644;53.480;10.004;2022-09-01T13:34:41;2.87;;;0.80;;
7205;SDS011;3644;53.480;10.004;2022-09-01T13:37:06;1.23;;;1.10;;
7205;SDS011;3644;53.480;10.004;2022-09-01T13:39:32;3.63;;;1.03;;
7205;SDS011;3644;53.480;10.004;2022-09-01T13:41:57;2.90;;;0.80;;
7205;SDS011;3644;53.480;10.004;2022-09-01T13:44:23;0.97;;;0.70;;
7205;SDS011;3644;53.480;10.004;2022-09-01T13:46:48;1.60;;;1.00;;
7205;SDS011;3644;53.480;10.004;2022-09-01T13:49:14;0.97;;;0.80;;
7205;SDS011;3644;53.480;10.004;2022-09-01T13:51:39;1.00;;;0.90;;
7205;SDS011;3644;53.480;10.004;2022-09-01T13:54:05;1.30;;;1.20;;
7205;SDS011;3644;53.480;10.004;2022-09-01T13:56:31;1.07;;;1.00;;
7205;SDS011;3644;53.480;10.004;2022-09-01T13:58:56;2.43;;;1.00;;
7205;SDS011;3644;53.480;10.004;2022-09-01T14:01:22;0.70;;;0.70;;
7205;SDS011;3644;53.480;10.004;2022-09-01T14:03:48;1.47;;;1.00;;
7205;SDS011;3644;53.480;10.004;2022-09-01T14:06:14;1.07;;;0.93;;
7205;SDS011;3644;53.480;10.004;2022-09-01T14:08:40;1.00;;;0.90;;
7205;SDS011;3644;53.480;10.004;2022-09-01T14:11:05;0.80;;;0.70;;
7205;SDS011;3644;53.480;10.004;2022-09-01T14:13:31;1.13;;;0.70;;
7205;SDS011;3644;53.480;10.004;2022-09-01T14:15:58;1.67;;;0.80;;
7205;SDS011;3644;53.480;10.004;2022-09-01T14:18:24;0.80;;;0.80;;
7205;SDS011;3644;53.480;10.004;2022-09-01T14:21:00;0.73;;;0.73;;
7205;SDS011;3644;53.480;10.004;2022-09-01T14:23:26;1.07;;;0.93;;
7205;SDS011;3644;53.480;10.004;2022-09-01T14:25:52;1.17;;;0.97;;
7205;SDS011;3644;53.480;10.004;2022-09-01T14:28:18;1.40;;;1.00;;
7205;SDS011;3644;53.480;10.004;2022-09-01T14:30:45;1.00;;;0.87;;
7205;SDS011;3644;53.480;10.004;2022-09-01T14:33:11;3.83;;;1.10;;
7205;SDS011;3644;53.480;10.004;2022-09-01T14:35:38;1.23;;;0.90;;
7205;SDS011;3644;53.480;10.004;2022-09-01T14:38:05;2.77;;;0.90;;
7205;SDS011;3644;53.480;10.004;2022-09-01T14:40:33;1.83;;;1.30;;
7205;SDS011;3644;53.480;10.004;2022-09-01T14:43:01;4.60;;;1.10;;
7205;SDS011;3644;53.480;10.004;2022-09-01T14:45:28;1.00;;;0.80;;
7205;SDS011;3644;53.480;10.004;2022-09-01T14:47:55;3.67;;;0.80;;
7205;SDS011;3644;53.480;10.004;2022-09-01T14:50:23;3.33;;;0.73;;
7205;SDS011;3644;53.480;10.004;2022-09-01T14:52:51;5.27;;;1.40;;
7205;SDS011;3644;53.480;10.004;2022-09-01T14:55:19;2.30;;;0.80;;
7205;SDS011;3644;53.480;10.004;2022-09-01T14:57:49;1.03;;;0.67;;
7205;SDS011;3644;53.480;10.004;2022-09-01T15:00:16;1.37;;;0.70;;
7205;SDS011;3644;53.480;10.004;2022-09-01T15:02:43;1.70;;;1.00;;
7205;SDS011;3644;53.480;10.004;2022-09-01T15:05:09;0.90;;;0.90;;
7205;SDS011;3644;53.480;10.004;2022-09-01T15:07:36;1.03;;;0.80;;
7205;SDS011;3644;53.480;10.004;2022-09-01T15:10:03;1.10;;;0.80;;
7205;SDS011;3644;53.480;10.004;2022-09-01T15:12:30;1.43;;;0.80;;
7205;SDS011;3644;53.480;10.004;2022-09-01T15:14:58;1.43;;;0.90;;
7205;SDS011;3644;53.480;10.004;2022-09-01T15:17:25;0.90;;;0.90;;
7205;SDS011;3644;53.480;10.004;2022-09-01T15:19:51;4.00;;;1.10;;
7205;SDS011;3644;53.480;10.004;2022-09-01T15:22:17;3.00;;;0.80;;
7205;SDS011;3644;53.480;10.004;2022-09-01T15:24:43;6.00;;;0.93;;
7205;SDS011;3644;53.480;10.004;2022-09-01T15:27:09;1.30;;;1.00;;
7205;SDS011;3644;53.480;10.004;2022-09-01T15:29:35;1.47;;;0.97;;
7205;SDS011;3644;53.480;10.004;2022-09-01T15:32:08;1.93;;;0.80;;
7205;SDS011;3644;53.480;10.004;2022-09-01T15:34:35;4.20;;;1.10;;
7205;SDS011;3644;53.480;10.004;2022-09-01T15:37:00;2.40;;;0.87;;
7205;SDS011;3644;53.480;10.004;2022-09-01T15:39:28;1.80;;;0.90;;
7205;SDS011;3644;53.480;10.004;2022-09-01T15:41:55;3.80;;;0.90;;
7205;SDS011;3644;53.480;10.004;2022-09-01T15:44:21;0.80;;;0.80;;
7205;SDS011;3644;53.480;10.004;2022-09-01T15:46:46;4.97;;;0.80;;
7205;SDS011;3644;53.480;10.004;2022-09-01T15:49:12;2.80;;;1.07;;
7205;SDS011;3644;53.480;10.004;2022-09-01T15:51:38;1.17;;;1.00;;
7205;SDS011;3644;53.480;10.004;2022-09-01T15:56:42;4.37;;;1.30;;
7205;SDS011;3644;53.480;10.004;2022-09-01T15:59:09;1.20;;;1.10;;
7205;SDS011;3644;53.480;10.004;2022-09-01T16:01:42;1.00;;;0.90;;
7205;SDS011;3644;53.480;10.004;2022-09-01T16:04:10;1.50;;;0.90;;
7205;SDS011;3644;53.480;10.004;2022-09-01T16:06:38;7.93;;;1.00;;
7205;SDS011;3644;53.480;10.004;2022-09-01T16:09:05;3.50;;;1.17;;
7205;SDS011;3644;53.480;10.004;2022-09-01T16:11:31;2.90;;;0.80;;
7205;SDS011;3644;53.480;10.004;2022-09-01T16:13:57;1.77;;;1.00;;
7205;SDS011;3644;53.480;10.004;2022-09-01T16:25:01;0.90;;;0.73;;
7205;SDS011;3644;53.480;10.004;2022-09-01T16:27:38;1.17;;;0.90;;
7205;SDS011;3644;53.480;10.004;2022-09-01T16:30:14;8.33;;;1.30;;
7205;SDS011;3644;53.480;10.004;2022-09-01T16:32:46;3.60;;;0.90;;
7205;SDS011;3644;53.480;10.004;2022-09-01T16:35:12;1.37;;;0.70;;
7205;SDS011;3644;53.480;10.004;2022-09-01T16:48:42;2.10;;;1.10;;
7205;SDS011;3644;53.480;10.004;2022-09-01T16:51:25;1.63;;;0.80;;